sensor_id;sensor_type;location;lat;lon;timestamp;P1;durP1;ratioP1;P2;durP2;ratioP2
47383;SDS011;33129;52.232;5.192;2022-10-17T00:01:54;9.50;;;5.33;;
47383;SDS011;33129;52.232;5.192;2022-10-17T00:04:21;10.33;;;5.20;;
47383;SDS011;33129;52.232;5.192;2022-10-17T00:06:46;8.97;;;5.00;;
47383;SDS011;33129;52.232;5.192;2022-10-17T00:09:12;8.93;;;5.20;;
47383;SDS011;33129;52.232;5.192;2022-10-17T00:11:38;8.77;;;5.43;;
47383;SDS011;33129;52.232;5.192;2022-10-17T00:14:03;9.87;;;5.27;;
47383;SDS011;33129;52.232;5.192;2022-10-17T00:16:30;8.00;;;5.30;;
47383;SDS011;33129;52.232;5.192;2022-10-17T00:19:00;8.77;;;5.10;;
47383;SDS011;33129;52.232;5.192;2022-10-17T00:21:27;9.30;;;5.60;;
47383;SDS011;33129;52.232;5.192;2022-10-17T00:23:53;10.27;;;5.83;;
47383;SDS011;33129;52.232;5.192;2022-10-17T00:26:20;9.93;;;5.53;;
47383;SDS011;33129;52.232;5.192;2022-10-17T00:28:47;10.27;;;5.77;;
47383;SDS011;33129;52.232;5.192;2022-10-17T00:31:15;9.13;;;5.03;;
47383;SDS011;33129;52.232;5.192;2022-10-17T00:33:43;9.77;;;5.50;;
47383;SDS011;33129;52.232;5.192;2022-10-17T00:36:13;11.43;;;5.77;;
47383;SDS011;33129;52.232;5.192;2022-10-17T00:38:49;10.67;;;5.97;;
47383;SDS011;33129;52.232;5.192;2022-10-17T00:41:18;8.43;;;6.18;;
47383;SDS011;33129;52.232;5.192;2022-10-17T00:46:34;8.83;;;6.47;;
47383;SDS011;33129;52.232;5.192;2022-10-17T00:49:07;9.37;;;5.70;;
47383;SDS011;33129;52.232;5.192;2022-10-17T00:54:13;11.93;;;7.00;;
47383;SDS011;33129;52.232;5.192;2022-10-17T00:56:43;12.15;;;6.70;;
47383;SDS011;33129;52.232;5.192;2022-10-17T00:59:11;12.57;;;6.90;;
47383;SDS011;33129;52.232;5.192;2022-10-17T01:01:39;11.50;;;6.90;;
47383;SDS011;33129;52.232;5.192;2022-10-17T01:04:07;10.93;;;7.50;;
47383;SDS011;33129;52.232;5.192;2022-10-17T01:06:34;11.37;;;8.07;;
47383;SDS011;33129;52.232;5.192;2022-10-17T01:08:59;12.17;;;7.80;;
47383;SDS011;33129;52.232;5.192;2022-10-17T01:11:33;10.67;;;7.10;;
47383;SDS011;33129;52.232;5.192;2022-10-17T01:20:04;11.47;;;7.50;;
47383;SDS011;33129;52.232;5.192;2022-10-17T01:23:23;13.43;;;9.03;;
47383;SDS011;33129;52.232;5.192;2022-10-17T01:32:01;13.20;;;8.03;;
47383;SDS011;33129;52.232;5.192;2022-10-17T01:42:52;13.53;;;8.40;;
47383;SDS011;33129;52.232;5.192;2022-10-17T01:45:33;13.93;;;8.43;;
47383;SDS011;33129;52.232;5.192;2022-10-17T01:48:11;13.03;;;9.17;;
47383;SDS011;33129;52.232;5.192;2022-10-17T01:50:43;12.37;;;8.80;;
47383;SDS011;33129;52.232;5.192;2022-10-17T01:56:23;12.25;;;8.38;;
47383;SDS011;33129;52.232;5.192;2022-10-17T01:58:55;12.98;;;8.63;;
47383;SDS011;33129;52.232;5.192;2022-10-17T02:01:25;11.80;;;8.90;;
47383;SDS011;33129;52.232;5.192;2022-10-17T02:03:54;11.23;;;7.87;;
47383;SDS011;33129;52.232;5.192;2022-10-17T02:06:22;12.03;;;8.77;;
47383;SDS011;33129;52.232;5.192;2022-10-17T02:08:48;12.73;;;8.63;;
47383;SDS011;33129;52.232;5.192;2022-10-17T02:11:16;14.37;;;8.63;;
47383;SDS011;33129;52.232;5.192;2022-10-17T02:14:04;14.43;;;8.13;;
47383;SDS011;33129;52.232;5.192;2022-10-17T02:22:30;14.77;;;9.00;;
47383;SDS011;33129;52.232;5.192;2022-10-17T02:25:11;13.57;;;8.43;;
47383;SDS011;33129;52.232;5.192;2022-10-17T02:27:51;13.00;;;8.67;;
47383;SDS011;33129;52.232;5.192;2022-10-17T02:33:13;14.23;;;9.13;;
47383;SDS011;33129;52.232;5.192;2022-10-17T02:35:49;16.30;;;10.00;;
47383;SDS011;33129;52.232;5.192;2022-10-17T02:38:19;13.27;;;9.40;;
47383;SDS011;33129;52.232;5.192;2022-10-17T02:40:47;14.87;;;9.70;;
47383;SDS011;33129;52.232;5.192;2022-10-17T02:43:15;13.70;;;9.33;;
47383;SDS011;33129;52.232;5.192;2022-10-17T02:45:41;12.93;;;9.40;;
47383;SDS011;33129;52.232;5.192;2022-10-17T02:53:38;18.03;;;9.80;;
47383;SDS011;33129;52.232;5.192;2022-10-17T02:56:18;12.10;;;9.48;;
47383;SDS011;33129;52.232;5.192;2022-10-17T02:58:46;13.73;;;9.57;;
47383;SDS011;33129;52.232;5.192;2022-10-17T03:01:16;14.93;;;9.10;;
47383;SDS011;33129;52.232;5.192;2022-10-17T03:03:43;13.97;;;9.30;;
47383;SDS011;33129;52.232;5.192;2022-10-17T03:06:09;12.53;;;9.27;;
47383;SDS011;33129;52.232;5.192;2022-10-17T03:08:34;13.67;;;10.07;;
47383;SDS011;33129;52.232;5.192;2022-10-17T03:11:00;13.53;;;9.70;;
47383;SDS011;33129;52.232;5.192;2022-10-17T03:13:27;11.93;;;8.67;;
47383;SDS011;33129;52.232;5.192;2022-10-17T03:15:57;12.10;;;9.10;;
47383;SDS011;33129;52.232;5.192;2022-10-17T03:18:23;14.77;;;9.70;;
47383;SDS011;33129;52.232;5.192;2022-10-17T03:20:49;14.83;;;9.63;;
47383;SDS011;33129;52.232;5.192;2022-10-17T03:23:14;14.53;;;9.23;;
47383;SDS011;33129;52.232;5.192;2022-10-17T03:25:40;16.23;;;9.17;;
47383;SDS011;33129;52.232;5.192;2022-10-17T03:28:06;13.50;;;9.77;;
47383;SDS011;33129;52.232;5.192;2022-10-17T03:30:33;12.57;;;9.03;;
47383;SDS011;33129;52.232;5.192;2022-10-17T03:32:59;15.57;;;9.90;;
47383;SDS011;33129;52.232;5.192;2022-10-17T03:35:25;11.93;;;9.10;;
47383;SDS011;33129;52.232;5.192;2022-10-17T03:37:51;13.30;;;9.40;;
47383;SDS011;33129;52.232;5.192;2022-10-17T03:40:19;13.70;;;9.23;;
47383;SDS011;33129;52.232;5.192;2022-10-17T03:42:45;13.73;;;9.10;;
47383;SDS011;33129;52.232;5.192;2022-10-17T03:45:10;16.57;;;10.17;;
47383;SDS011;33129;52.232;5.192;2022-10-17T03:47:36;16.07;;;9.23;;
47383;SDS011;33129;52.232;5.192;2022-10-17T03:50:02;14.00;;;9.53;;
47383;SDS011;33129;52.232;5.192;2022-10-17T03:52:28;12.63;;;9.63;;
47383;SDS011;33129;52.232;5.192;2022-10-17T03:54:54;13.97;;;9.93;;
47383;SDS011;33129;52.232;5.192;2022-10-17T03:57:19;11.80;;;8.93;;
47383;SDS011;33129;52.232;5.192;2022-10-17T03:59:45;16.57;;;9.93;;
47383;SDS011;33129;52.232;5.192;2022-10-17T04:02:11;13.70;;;8.80;;
47383;SDS011;33129;52.232;5.192;2022-10-17T04:04:36;13.73;;;9.40;;
47383;SDS011;33129;52.232;5.192;2022-10-17T04:07:02;15.43;;;10.00;;
47383;SDS011;33129;52.232;5.192;2022-10-17T04:09:28;13.13;;;9.00;;
47383;SDS011;33129;52.232;5.192;2022-10-17T04:11:53;14.00;;;9.40;;
47383;SDS011;33129;52.232;5.192;2022-10-17T04:14:19;14.83;;;9.57;;
47383;SDS011;33129;52.232;5.192;2022-10-17T04:16:45;11.70;;;8.83;;
47383;SDS011;33129;52.232;5.192;2022-10-17T04:19:11;12.73;;;9.43;;
47383;SDS011;33129;52.232;5.192;2022-10-17T04:21:37;14.23;;;9.10;;
47383;SDS011;33129;52.232;5.192;2022-10-17T04:24:03;15.30;;;10.07;;
47383;SDS011;33129;52.232;5.192;2022-10-17T04:26:29;13.87;;;9.63;;
47383;SDS011;33129;52.232;5.192;2022-10-17T04:28:55;12.57;;;9.13;;
47383;SDS011;33129;52.232;5.192;2022-10-17T04:31:21;12.97;;;8.90;;
47383;SDS011;33129;52.232;5.192;2022-10-17T04:33:48;11.47;;;8.97;;
47383;SDS011;33129;52.232;5.192;2022-10-17T04:36:16;15.63;;;9.20;;
47383;SDS011;33129;52.232;5.192;2022-10-17T04:38:43;13.27;;;9.20;;
47383;SDS011;33129;52.232;5.192;2022-10-17T04:41:13;13.13;;;9.80;;
47383;SDS011;33129;52.232;5.192;2022-10-17T04:43:41;14.53;;;9.53;;
47383;SDS011;33129;52.232;5.192;2022-10-17T04:46:09;13.03;;;9.27;;
47383;SDS011;33129;52.232;5.192;2022-10-17T04:48:37;12.80;;;8.97;;
47383;SDS011;33129;52.232;5.192;2022-10-17T04:51:05;13.07;;;9.00;;
47383;SDS011;33129;52.232;5.192;2022-10-17T04:53:35;12.37;;;8.83;;
47383;SDS011;33129;52.232;5.192;2022-10-17T04:56:07;17.47;;;8.80;;
47383;SDS011;33129;52.232;5.192;2022-10-17T04:58:40;15.43;;;8.77;;
47383;SDS011;33129;52.232;5.192;2022-10-17T05:01:08;16.17;;;8.93;;
47383;SDS011;33129;52.232;5.192;2022-10-17T05:03:36;12.77;;;9.13;;
47383;SDS011;33129;52.232;5.192;2022-10-17T05:06:06;11.90;;;8.50;;
47383;SDS011;33129;52.232;5.192;2022-10-17T05:08:36;17.13;;;9.40;;
47383;SDS011;33129;52.232;5.192;2022-10-17T05:11:03;11.50;;;8.30;;
47383;SDS011;33129;52.232;5.192;2022-10-17T05:13:30;15.17;;;8.37;;
47383;SDS011;33129;52.232;5.192;2022-10-17T05:15:58;13.37;;;8.13;;
47383;SDS011;33129;52.232;5.192;2022-10-17T05:18:27;16.70;;;9.17;;
47383;SDS011;33129;52.232;5.192;2022-10-17T05:20:53;17.00;;;8.47;;
47383;SDS011;33129;52.232;5.192;2022-10-17T05:23:19;11.87;;;8.57;;
47383;SDS011;33129;52.232;5.192;2022-10-17T05:25:44;15.30;;;8.30;;
47383;SDS011;33129;52.232;5.192;2022-10-17T05:28:10;12.47;;;8.57;;
47383;SDS011;33129;52.232;5.192;2022-10-17T05:30:36;12.47;;;8.07;;
47383;SDS011;33129;52.232;5.192;2022-10-17T05:33:01;13.30;;;8.77;;
47383;SDS011;33129;52.232;5.192;2022-10-17T05:35:27;13.50;;;8.80;;
47383;SDS011;33129;52.232;5.192;2022-10-17T05:37:53;15.47;;;9.03;;
47383;SDS011;33129;52.232;5.192;2022-10-17T05:40:19;12.67;;;8.07;;
47383;SDS011;33129;52.232;5.192;2022-10-17T05:42:48;13.53;;;9.47;;
47383;SDS011;33129;52.232;5.192;2022-10-17T05:45:14;11.97;;;8.60;;
47383;SDS011;33129;52.232;5.192;2022-10-17T05:47:40;11.30;;;8.57;;
47383;SDS011;33129;52.232;5.192;2022-10-17T05:50:06;16.07;;;9.17;;
47383;SDS011;33129;52.232;5.192;2022-10-17T05:52:33;12.20;;;8.73;;
47383;SDS011;33129;52.232;5.192;2022-10-17T05:54:59;12.57;;;8.63;;
47383;SDS011;33129;52.232;5.192;2022-10-17T05:57:25;17.20;;;9.13;;
47383;SDS011;33129;52.232;5.192;2022-10-17T05:59:50;12.83;;;8.43;;
47383;SDS011;33129;52.232;5.192;2022-10-17T06:02:16;13.03;;;9.43;;
47383;SDS011;33129;52.232;5.192;2022-10-17T06:04:42;12.33;;;9.13;;
47383;SDS011;33129;52.232;5.192;2022-10-17T06:07:10;14.57;;;8.87;;
47383;SDS011;33129;52.232;5.192;2022-10-17T06:09:37;13.10;;;8.70;;
47383;SDS011;33129;52.232;5.192;2022-10-17T06:12:04;13.00;;;7.70;;
47383;SDS011;33129;52.232;5.192;2022-10-17T06:14:30;14.57;;;9.40;;
47383;SDS011;33129;52.232;5.192;2022-10-17T06:16:55;14.70;;;9.23;;
47383;SDS011;33129;52.232;5.192;2022-10-17T06:19:21;12.33;;;8.73;;
47383;SDS011;33129;52.232;5.192;2022-10-17T06:21:47;13.07;;;9.43;;
47383;SDS011;33129;52.232;5.192;2022-10-17T06:24:13;13.07;;;9.03;;
47383;SDS011;33129;52.232;5.192;2022-10-17T06:26:38;11.83;;;8.97;;
47383;SDS011;33129;52.232;5.192;2022-10-17T06:29:04;13.63;;;9.20;;
47383;SDS011;33129;52.232;5.192;2022-10-17T06:31:30;14.87;;;10.00;;
47383;SDS011;33129;52.232;5.192;2022-10-17T06:33:55;16.00;;;9.40;;
47383;SDS011;33129;52.232;5.192;2022-10-17T06:36:21;17.60;;;11.83;;
47383;SDS011;33129;52.232;5.192;2022-10-17T06:38:47;13.67;;;10.13;;
47383;SDS011;33129;52.232;5.192;2022-10-17T06:41:13;14.27;;;9.43;;
47383;SDS011;33129;52.232;5.192;2022-10-17T06:43:43;13.43;;;9.40;;
47383;SDS011;33129;52.232;5.192;2022-10-17T06:46:10;13.13;;;8.50;;
47383;SDS011;33129;52.232;5.192;2022-10-17T06:48:37;14.57;;;8.77;;
47383;SDS011;33129;52.232;5.192;2022-10-17T06:51:04;13.90;;;9.30;;
47383;SDS011;33129;52.232;5.192;2022-10-17T06:53:31;14.43;;;9.10;;
47383;SDS011;33129;52.232;5.192;2022-10-17T06:55:58;12.53;;;9.40;;
47383;SDS011;33129;52.232;5.192;2022-10-17T06:58:29;14.77;;;9.32;;
47383;SDS011;33129;52.232;5.192;2022-10-17T07:01:01;14.53;;;8.77;;
47383;SDS011;33129;52.232;5.192;2022-10-17T07:03:30;11.30;;;7.90;;
47383;SDS011;33129;52.232;5.192;2022-10-17T07:05:56;12.23;;;8.53;;
47383;SDS011;33129;52.232;5.192;2022-10-17T07:08:23;17.17;;;9.83;;
47383;SDS011;33129;52.232;5.192;2022-10-17T07:10:49;12.83;;;8.93;;
47383;SDS011;33129;52.232;5.192;2022-10-17T07:13:15;15.40;;;9.00;;
47383;SDS011;33129;52.232;5.192;2022-10-17T07:15:42;14.07;;;8.53;;
47383;SDS011;33129;52.232;5.192;2022-10-17T07:18:08;17.00;;;9.97;;
47383;SDS011;33129;52.232;5.192;2022-10-17T07:20:34;15.10;;;9.83;;
47383;SDS011;33129;52.232;5.192;2022-10-17T07:22:59;14.17;;;8.80;;
47383;SDS011;33129;52.232;5.192;2022-10-17T07:25:25;14.43;;;9.57;;
47383;SDS011;33129;52.232;5.192;2022-10-17T07:27:51;14.77;;;8.80;;
47383;SDS011;33129;52.232;5.192;2022-10-17T07:30:17;14.57;;;8.73;;
47383;SDS011;33129;52.232;5.192;2022-10-17T07:32:45;15.83;;;9.23;;
47383;SDS011;33129;52.232;5.192;2022-10-17T07:35:11;15.77;;;8.93;;
47383;SDS011;33129;52.232;5.192;2022-10-17T07:37:37;14.70;;;9.20;;
47383;SDS011;33129;52.232;5.192;2022-10-17T07:40:04;14.37;;;9.40;;
47383;SDS011;33129;52.232;5.192;2022-10-17T07:42:32;15.37;;;9.20;;
47383;SDS011;33129;52.232;5.192;2022-10-17T07:45:00;13.67;;;9.50;;
47383;SDS011;33129;52.232;5.192;2022-10-17T07:47:26;14.83;;;8.27;;
47383;SDS011;33129;52.232;5.192;2022-10-17T07:49:54;11.47;;;8.67;;
47383;SDS011;33129;52.232;5.192;2022-10-17T07:52:21;12.60;;;9.07;;
47383;SDS011;33129;52.232;5.192;2022-10-17T07:54:47;13.70;;;8.33;;
47383;SDS011;33129;52.232;5.192;2022-10-17T07:57:12;14.33;;;9.23;;
47383;SDS011;33129;52.232;5.192;2022-10-17T07:59:38;13.87;;;9.13;;
47383;SDS011;33129;52.232;5.192;2022-10-17T08:02:04;14.03;;;9.23;;
47383;SDS011;33129;52.232;5.192;2022-10-17T08:04:32;13.60;;;9.23;;
47383;SDS011;33129;52.232;5.192;2022-10-17T08:07:00;13.77;;;9.13;;
47383;SDS011;33129;52.232;5.192;2022-10-17T08:09:26;14.43;;;8.50;;
47383;SDS011;33129;52.232;5.192;2022-10-17T08:11:52;11.97;;;8.73;;
47383;SDS011;33129;52.232;5.192;2022-10-17T08:14:18;12.43;;;8.30;;
47383;SDS011;33129;52.232;5.192;2022-10-17T08:16:43;12.43;;;8.00;;
47383;SDS011;33129;52.232;5.192;2022-10-17T08:19:09;14.27;;;8.07;;
47383;SDS011;33129;52.232;5.192;2022-10-17T08:21:35;12.47;;;7.77;;
47383;SDS011;33129;52.232;5.192;2022-10-17T08:24:02;14.80;;;9.03;;
47383;SDS011;33129;52.232;5.192;2022-10-17T08:26:28;15.63;;;9.53;;
47383;SDS011;33129;52.232;5.192;2022-10-17T08:28:54;13.63;;;9.20;;
47383;SDS011;33129;52.232;5.192;2022-10-17T08:31:21;18.87;;;9.53;;
47383;SDS011;33129;52.232;5.192;2022-10-17T08:33:47;14.33;;;9.03;;
47383;SDS011;33129;52.232;5.192;2022-10-17T08:36:15;17.97;;;10.27;;
47383;SDS011;33129;52.232;5.192;2022-10-17T08:38:44;15.73;;;10.43;;
47383;SDS011;33129;52.232;5.192;2022-10-17T08:47:18;16.13;;;10.40;;
47383;SDS011;33129;52.232;5.192;2022-10-17T08:49:53;14.97;;;10.10;;
47383;SDS011;33129;52.232;5.192;2022-10-17T08:55:13;17.17;;;10.73;;
47383;SDS011;33129;52.232;5.192;2022-10-17T08:57:54;18.77;;;11.13;;
47383;SDS011;33129;52.232;5.192;2022-10-17T09:00:20;16.97;;;10.60;;
47383;SDS011;33129;52.232;5.192;2022-10-17T09:06:16;18.03;;;11.23;;
47383;SDS011;33129;52.232;5.192;2022-10-17T09:08:48;17.03;;;10.87;;
47383;SDS011;33129;52.232;5.192;2022-10-17T09:14:37;18.70;;;11.53;;
47383;SDS011;33129;52.232;5.192;2022-10-17T09:19:48;16.97;;;11.33;;
47383;SDS011;33129;52.232;5.192;2022-10-17T09:22:32;14.20;;;10.60;;
47383;SDS011;33129;52.232;5.192;2022-10-17T09:25:21;16.80;;;10.80;;
47383;SDS011;33129;52.232;5.192;2022-10-17T09:27:51;16.17;;;11.30;;
47383;SDS011;33129;52.232;5.192;2022-10-17T09:30:31;19.70;;;11.97;;
47383;SDS011;33129;52.232;5.192;2022-10-17T09:33:13;16.80;;;11.33;;
47383;SDS011;33129;52.232;5.192;2022-10-17T09:35:42;18.80;;;12.37;;
47383;SDS011;33129;52.232;5.192;2022-10-17T09:38:14;19.57;;;12.00;;
47383;SDS011;33129;52.232;5.192;2022-10-17T09:40:45;21.40;;;14.90;;
47383;SDS011;33129;52.232;5.192;2022-10-17T09:43:19;22.67;;;12.83;;
47383;SDS011;33129;52.232;5.192;2022-10-17T09:45:50;21.67;;;12.03;;
47383;SDS011;33129;52.232;5.192;2022-10-17T09:48:34;17.87;;;13.70;;
47383;SDS011;33129;52.232;5.192;2022-10-17T09:51:10;17.10;;;11.20;;
47383;SDS011;33129;52.232;5.192;2022-10-17T09:53:41;19.37;;;11.70;;
47383;SDS011;33129;52.232;5.192;2022-10-17T09:56:14;21.57;;;11.80;;
47383;SDS011;33129;52.232;5.192;2022-10-17T09:58:44;17.63;;;11.50;;
47383;SDS011;33129;52.232;5.192;2022-10-17T10:01:24;17.33;;;11.53;;
47383;SDS011;33129;52.232;5.192;2022-10-17T10:04:14;20.90;;;12.00;;
47383;SDS011;33129;52.232;5.192;2022-10-17T10:07:02;15.80;;;10.97;;
47383;SDS011;33129;52.232;5.192;2022-10-17T10:09:30;17.33;;;11.33;;
47383;SDS011;33129;52.232;5.192;2022-10-17T10:11:58;16.77;;;10.23;;
47383;SDS011;33129;52.232;5.192;2022-10-17T10:16:57;16.40;;;10.60;;
47383;SDS011;33129;52.232;5.192;2022-10-17T10:19:27;17.30;;;10.90;;
47383;SDS011;33129;52.232;5.192;2022-10-17T10:24:27;17.07;;;11.60;;
47383;SDS011;33129;52.232;5.192;2022-10-17T10:26:54;18.47;;;12.17;;
47383;SDS011;33129;52.232;5.192;2022-10-17T10:29:33;14.60;;;10.47;;
47383;SDS011;33129;52.232;5.192;2022-10-17T10:32:06;15.10;;;9.57;;
47383;SDS011;33129;52.232;5.192;2022-10-17T10:34:49;19.00;;;11.07;;
47383;SDS011;33129;52.232;5.192;2022-10-17T10:37:37;16.40;;;10.90;;
47383;SDS011;33129;52.232;5.192;2022-10-17T10:43:03;15.87;;;10.63;;
47383;SDS011;33129;52.232;5.192;2022-10-17T10:48:19;13.87;;;9.50;;
47383;SDS011;33129;52.232;5.192;2022-10-17T10:58:59;11.97;;;7.20;;
47383;SDS011;33129;52.232;5.192;2022-10-17T11:01:36;9.27;;;5.60;;
47383;SDS011;33129;52.232;5.192;2022-10-17T11:04:26;9.13;;;5.40;;
47383;SDS011;33129;52.232;5.192;2022-10-17T11:07:08;8.67;;;5.30;;
47383;SDS011;33129;52.232;5.192;2022-10-17T11:12:51;10.60;;;6.63;;
47383;SDS011;33129;52.232;5.192;2022-10-17T11:15:46;10.27;;;6.63;;
47383;SDS011;33129;52.232;5.192;2022-10-17T11:21:02;11.03;;;6.83;;
47383;SDS011;33129;52.232;5.192;2022-10-17T11:26:14;12.33;;;7.37;;
47383;SDS011;33129;52.232;5.192;2022-10-17T11:28:53;10.90;;;7.33;;
47383;SDS011;33129;52.232;5.192;2022-10-17T11:31:21;10.97;;;7.83;;
47383;SDS011;33129;52.232;5.192;2022-10-17T11:33:53;9.37;;;6.10;;
47383;SDS011;33129;52.232;5.192;2022-10-17T11:36:39;12.53;;;6.60;;
47383;SDS011;33129;52.232;5.192;2022-10-17T11:39:13;10.10;;;5.80;;
47383;SDS011;33129;52.232;5.192;2022-10-17T11:42:19;9.07;;;6.60;;
47383;SDS011;33129;52.232;5.192;2022-10-17T11:45:01;10.40;;;6.27;;
47383;SDS011;33129;52.232;5.192;2022-10-17T11:47:39;10.70;;;5.90;;
47383;SDS011;33129;52.232;5.192;2022-10-17T11:50:24;9.10;;;5.33;;
47383;SDS011;33129;52.232;5.192;2022-10-17T11:55:47;8.68;;;5.80;;
47383;SDS011;33129;52.232;5.192;2022-10-17T11:58:23;9.47;;;6.20;;
47383;SDS011;33129;52.232;5.192;2022-10-17T12:04:11;8.32;;;5.97;;
47383;SDS011;33129;52.232;5.192;2022-10-17T12:06:47;10.00;;;6.03;;
47383;SDS011;33129;52.232;5.192;2022-10-17T12:12:05;10.17;;;6.57;;
47383;SDS011;33129;52.232;5.192;2022-10-17T12:14:38;7.90;;;5.77;;
47383;SDS011;33129;52.232;5.192;2022-10-17T12:17:21;8.93;;;6.07;;
47383;SDS011;33129;52.232;5.192;2022-10-17T12:20:12;9.20;;;6.80;;
47383;SDS011;33129;52.232;5.192;2022-10-17T12:22:48;13.63;;;7.87;;
47383;SDS011;33129;52.232;5.192;2022-10-17T12:25:18;9.53;;;7.23;;
47383;SDS011;33129;52.232;5.192;2022-10-17T12:38:50;8.43;;;5.80;;
47383;SDS011;33129;52.232;5.192;2022-10-17T12:55:22;8.43;;;6.20;;
47383;SDS011;33129;52.232;5.192;2022-10-17T13:03:19;10.10;;;7.27;;
47383;SDS011;33129;52.232;5.192;2022-10-17T13:05:51;11.90;;;7.47;;
47383;SDS011;33129;52.232;5.192;2022-10-17T13:08:22;13.45;;;7.45;;
47383;SDS011;33129;52.232;5.192;2022-10-17T13:10:53;9.63;;;7.23;;
47383;SDS011;33129;52.232;5.192;2022-10-17T13:16:07;10.50;;;6.50;;
47383;SDS011;33129;52.232;5.192;2022-10-17T13:18:33;10.53;;;6.43;;
47383;SDS011;33129;52.232;5.192;2022-10-17T13:21:00;9.77;;;6.90;;
47383;SDS011;33129;52.232;5.192;2022-10-17T13:23:38;8.77;;;6.07;;
47383;SDS011;33129;52.232;5.192;2022-10-17T13:26:25;9.73;;;5.77;;
47383;SDS011;33129;52.232;5.192;2022-10-17T13:31:36;8.93;;;5.73;;
47383;SDS011;33129;52.232;5.192;2022-10-17T13:34:12;9.83;;;5.53;;
47383;SDS011;33129;52.232;5.192;2022-10-17T13:36:49;6.93;;;4.33;;
47383;SDS011;33129;52.232;5.192;2022-10-17T13:41:47;9.80;;;5.30;;
47383;SDS011;33129;52.232;5.192;2022-10-17T13:44:17;8.53;;;4.90;;
47383;SDS011;33129;52.232;5.192;2022-10-17T13:46:45;7.87;;;5.00;;
47383;SDS011;33129;52.232;5.192;2022-10-17T13:51:59;10.97;;;5.27;;
47383;SDS011;33129;52.232;5.192;2022-10-17T13:56:58;7.85;;;5.68;;
47383;SDS011;33129;52.232;5.192;2022-10-17T13:59:37;7.77;;;5.07;;
47383;SDS011;33129;52.232;5.192;2022-10-17T14:02:05;7.47;;;5.67;;
47383;SDS011;33129;52.232;5.192;2022-10-17T14:04:40;8.47;;;5.93;;
47383;SDS011;33129;52.232;5.192;2022-10-17T14:07:11;8.13;;;5.47;;
47383;SDS011;33129;52.232;5.192;2022-10-17T14:10:00;9.73;;;5.83;;
47383;SDS011;33129;52.232;5.192;2022-10-17T14:12:30;8.63;;;6.27;;
47383;SDS011;33129;52.232;5.192;2022-10-17T14:14:57;9.97;;;6.20;;
47383;SDS011;33129;52.232;5.192;2022-10-17T14:17:27;9.13;;;6.77;;
47383;SDS011;33129;52.232;5.192;2022-10-17T14:19:58;9.27;;;6.40;;
47383;SDS011;33129;52.232;5.192;2022-10-17T14:22:28;10.33;;;7.00;;
47383;SDS011;33129;52.232;5.192;2022-10-17T14:24:59;12.73;;;7.10;;
47383;SDS011;33129;52.232;5.192;2022-10-17T14:27:32;11.50;;;6.30;;
47383;SDS011;33129;52.232;5.192;2022-10-17T14:30:38;11.17;;;6.90;;
47383;SDS011;33129;52.232;5.192;2022-10-17T14:33:30;10.73;;;7.17;;
47383;SDS011;33129;52.232;5.192;2022-10-17T14:35:57;10.37;;;7.60;;
47383;SDS011;33129;52.232;5.192;2022-10-17T14:38:25;10.17;;;7.00;;
47383;SDS011;33129;52.232;5.192;2022-10-17T14:44:04;11.10;;;7.07;;
47383;SDS011;33129;52.232;5.192;2022-10-17T14:46:34;10.87;;;6.77;;
47383;SDS011;33129;52.232;5.192;2022-10-17T14:49:05;10.67;;;6.97;;
47383;SDS011;33129;52.232;5.192;2022-10-17T14:51:39;11.93;;;7.50;;
47383;SDS011;33129;52.232;5.192;2022-10-17T14:54:16;10.63;;;7.50;;
47383;SDS011;33129;52.232;5.192;2022-10-17T14:56:48;10.17;;;7.10;;
47383;SDS011;33129;52.232;5.192;2022-10-17T14:59:16;9.27;;;7.20;;
47383;SDS011;33129;52.232;5.192;2022-10-17T15:01:48;11.30;;;7.67;;
47383;SDS011;33129;52.232;5.192;2022-10-17T15:04:15;10.67;;;7.20;;
47383;SDS011;33129;52.232;5.192;2022-10-17T15:06:41;12.13;;;7.27;;
47383;SDS011;33129;52.232;5.192;2022-10-17T15:09:08;10.70;;;6.83;;
47383;SDS011;33129;52.232;5.192;2022-10-17T15:11:35;12.13;;;7.70;;
47383;SDS011;33129;52.232;5.192;2022-10-17T15:14:02;11.63;;;8.00;;
47383;SDS011;33129;52.232;5.192;2022-10-17T15:16:31;10.10;;;7.60;;
47383;SDS011;33129;52.232;5.192;2022-10-17T15:18:59;11.03;;;7.90;;
47383;SDS011;33129;52.232;5.192;2022-10-17T15:21:26;13.23;;;8.77;;
47383;SDS011;33129;52.232;5.192;2022-10-17T15:23:53;13.87;;;9.00;;
47383;SDS011;33129;52.232;5.192;2022-10-17T15:26:23;12.77;;;8.73;;
47383;SDS011;33129;52.232;5.192;2022-10-17T15:28:51;11.33;;;8.30;;
47383;SDS011;33129;52.232;5.192;2022-10-17T15:31:19;12.80;;;9.17;;
47383;SDS011;33129;52.232;5.192;2022-10-17T15:33:47;12.13;;;9.03;;
47383;SDS011;33129;52.232;5.192;2022-10-17T15:36:27;14.20;;;8.37;;
47383;SDS011;33129;52.232;5.192;2022-10-17T15:38:58;14.00;;;8.90;;
47383;SDS011;33129;52.232;5.192;2022-10-17T15:41:26;11.13;;;6.87;;
47383;SDS011;33129;52.232;5.192;2022-10-17T15:43:54;10.17;;;7.37;;
47383;SDS011;33129;52.232;5.192;2022-10-17T15:46:22;12.07;;;7.70;;
47383;SDS011;33129;52.232;5.192;2022-10-17T15:48:51;14.57;;;8.47;;
47383;SDS011;33129;52.232;5.192;2022-10-17T15:51:18;14.70;;;8.10;;
47383;SDS011;33129;52.232;5.192;2022-10-17T15:53:45;10.87;;;7.10;;
47383;SDS011;33129;52.232;5.192;2022-10-17T15:56:19;10.67;;;7.07;;
47383;SDS011;33129;52.232;5.192;2022-10-17T15:59:01;12.63;;;7.33;;
47383;SDS011;33129;52.232;5.192;2022-10-17T16:01:34;10.83;;;6.87;;
47383;SDS011;33129;52.232;5.192;2022-10-17T16:04:00;8.83;;;6.87;;
47383;SDS011;33129;52.232;5.192;2022-10-17T16:06:26;8.40;;;6.37;;
47383;SDS011;33129;52.232;5.192;2022-10-17T16:08:53;10.50;;;6.43;;
47383;SDS011;33129;52.232;5.192;2022-10-17T16:14:01;12.80;;;6.40;;
47383;SDS011;33129;52.232;5.192;2022-10-17T16:16:44;14.20;;;6.00;;
47383;SDS011;33129;52.232;5.192;2022-10-17T16:19:15;8.23;;;5.60;;
47383;SDS011;33129;52.232;5.192;2022-10-17T16:21:41;10.13;;;6.00;;
47383;SDS011;33129;52.232;5.192;2022-10-17T16:24:09;12.13;;;7.03;;
47383;SDS011;33129;52.232;5.192;2022-10-17T16:26:37;8.77;;;5.97;;
47383;SDS011;33129;52.232;5.192;2022-10-17T16:29:14;10.87;;;6.70;;
47383;SDS011;33129;52.232;5.192;2022-10-17T16:31:42;10.30;;;6.00;;
47383;SDS011;33129;52.232;5.192;2022-10-17T16:34:10;10.87;;;6.17;;
47383;SDS011;33129;52.232;5.192;2022-10-17T16:36:38;9.73;;;5.90;;
47383;SDS011;33129;52.232;5.192;2022-10-17T16:39:04;13.40;;;5.90;;
47383;SDS011;33129;52.232;5.192;2022-10-17T16:41:32;13.20;;;6.33;;
47383;SDS011;33129;52.232;5.192;2022-10-17T16:44:02;10.63;;;5.97;;
47383;SDS011;33129;52.232;5.192;2022-10-17T16:46:31;9.95;;;6.35;;
47383;SDS011;33129;52.232;5.192;2022-10-17T16:48:59;10.57;;;6.47;;
47383;SDS011;33129;52.232;5.192;2022-10-17T16:51:25;10.77;;;6.60;;
47383;SDS011;33129;52.232;5.192;2022-10-17T16:53:53;13.70;;;6.63;;
47383;SDS011;33129;52.232;5.192;2022-10-17T16:56:20;12.40;;;6.93;;
47383;SDS011;33129;52.232;5.192;2022-10-17T16:58:48;12.70;;;7.07;;
47383;SDS011;33129;52.232;5.192;2022-10-17T17:01:16;10.10;;;5.57;;
47383;SDS011;33129;52.232;5.192;2022-10-17T17:03:45;11.30;;;5.70;;
47383;SDS011;33129;52.232;5.192;2022-10-17T17:06:13;9.53;;;5.60;;
47383;SDS011;33129;52.232;5.192;2022-10-17T17:08:51;11.20;;;5.60;;
47383;SDS011;33129;52.232;5.192;2022-10-17T17:11:18;10.53;;;4.70;;
47383;SDS011;33129;52.232;5.192;2022-10-17T17:13:46;10.20;;;5.50;;
47383;SDS011;33129;52.232;5.192;2022-10-17T17:16:14;11.27;;;5.27;;
47383;SDS011;33129;52.232;5.192;2022-10-17T17:18:42;8.88;;;5.35;;
47383;SDS011;33129;52.232;5.192;2022-10-17T17:21:10;12.57;;;5.87;;